createdAt,value
2018-07-27T00:00:07.799Z,14.70
2018-07-27T00:02:36.207Z,14.70
2018-07-27T00:05:04.775Z,14.60
2018-07-27T00:07:33.223Z,14.60
2018-07-27T00:10:01.698Z,14.70
2018-07-27T00:12:30.326Z,14.60
2018-07-27T00:17:27.055Z,14.50
2018-07-27T00:19:55.471Z,14.50
2018-07-27T00:22:24.015Z,14.50
2018-07-27T00:24:52.679Z,14.50
2018-07-27T00:27:21.168Z,14.40
2018-07-27T00:29:49.734Z,14.40
2018-07-27T00:32:18.231Z,14.40
2018-07-27T00:34:46.900Z,14.40
2018-07-27T00:37:15.395Z,14.40
2018-07-27T00:39:43.911Z,14.30
2018-07-27T00:42:12.438Z,14.30
2018-07-27T00:44:41.035Z,14.20
2018-07-27T00:47:09.468Z,14.10
2018-07-27T00:49:37.922Z,14.10
2018-07-27T00:52:06.683Z,14.10
2018-07-27T00:54:35.196Z,14.10
2018-07-27T00:57:03.681Z,14.10
2018-07-27T00:59:32.182Z,14.10
2018-07-27T01:02:00.602Z,14.10
2018-07-27T01:04:29.015Z,14.00
2018-07-27T01:06:57.438Z,14.00
2018-07-27T01:09:25.922Z,14.00
2018-07-27T01:11:54.463Z,13.90
2018-07-27T01:14:22.978Z,13.90
2018-07-27T01:16:51.402Z,13.80
2018-07-27T01:19:19.978Z,13.80
2018-07-27T01:21:48.518Z,13.80
2018-07-27T01:24:17.042Z,13.80
2018-07-27T01:26:46.418Z,13.80
2018-07-27T01:29:16.991Z,13.80
2018-07-27T01:31:45.614Z,13.70
2018-07-27T01:34:14.220Z,13.70
2018-07-27T01:36:42.891Z,13.60
2018-07-27T01:39:15.502Z,13.70
2018-07-27T01:41:44.146Z,13.60
2018-07-27T01:44:12.838Z,13.60
2018-07-27T01:46:41.720Z,13.50
2018-07-27T01:49:11.038Z,13.40
2018-07-27T01:51:39.606Z,13.40
2018-07-27T01:54:08.146Z,13.40
2018-07-27T01:56:36.939Z,13.40
2018-07-27T01:59:05.470Z,13.50
2018-07-27T02:01:34.050Z,13.50
2018-07-27T02:04:02.530Z,13.50
2018-07-27T02:06:31.084Z,13.40
2018-07-27T02:08:59.591Z,13.40
2018-07-27T02:11:28.099Z,13.30
2018-07-27T02:13:56.658Z,13.40
2018-07-27T02:16:25.145Z,13.30
2018-07-27T02:18:53.896Z,13.30
2018-07-27T02:21:22.338Z,13.30
2018-07-27T02:23:50.897Z,13.30
2018-07-27T02:26:19.458Z,13.30
2018-07-27T02:28:47.866Z,13.20
2018-07-27T02:31:16.347Z,13.20
2018-07-27T02:36:13.223Z,13.30
2018-07-27T02:38:42.506Z,13.20
2018-07-27T02:43:39.216Z,13.10
2018-07-27T02:46:07.672Z,13.20
2018-07-27T02:48:36.071Z,13.20
2018-07-27T02:51:04.735Z,13.10
2018-07-27T02:53:33.179Z,13.10
2018-07-27T02:56:01.606Z,13.10
2018-07-27T02:58:30.018Z,13.00
2018-07-27T03:00:58.550Z,13.00
2018-07-27T03:03:27.034Z,13.00
2018-07-27T03:05:55.540Z,13.00
2018-07-27T03:08:23.930Z,13.00
2018-07-27T03:10:52.689Z,13.00
2018-07-27T03:13:21.119Z,13.00
2018-07-27T03:15:49.660Z,12.90
2018-07-27T03:18:18.231Z,12.80
2018-07-27T03:20:46.644Z,12.80
2018-07-27T03:23:15.219Z,12.80
2018-07-27T03:25:43.762Z,12.90
2018-07-27T03:28:12.265Z,12.90
2018-07-27T03:30:40.751Z,12.90
2018-07-27T03:33:09.254Z,12.80
2018-07-27T03:35:37.823Z,12.80
2018-07-27T03:38:06.270Z,12.80
2018-07-27T03:40:34.754Z,12.80
2018-07-27T03:43:03.282Z,12.80
2018-07-27T03:45:31.830Z,12.80
2018-07-27T03:48:03.307Z,12.80
2018-07-27T03:50:31.738Z,12.70
2018-07-27T03:53:00.253Z,12.70
2018-07-27T03:55:28.779Z,12.70
2018-07-27T03:57:57.283Z,12.60
2018-07-27T04:00:25.693Z,12.60
2018-07-27T04:02:56.051Z,12.50
2018-07-27T04:05:24.523Z,12.60
2018-07-27T04:07:53.139Z,12.60
2018-07-27T04:10:21.579Z,12.60
2018-07-27T04:12:50.242Z,12.60
2018-07-27T04:15:18.750Z,12.70
2018-07-27T04:18:03.769Z,12.70
2018-07-27T04:20:32.223Z,12.70
2018-07-27T04:23:00.792Z,12.80
2018-07-27T04:25:29.295Z,12.80
2018-07-27T04:27:57.879Z,12.70
2018-07-27T04:30:26.466Z,12.80
2018-07-27T04:32:55.050Z,12.80
2018-07-27T04:35:23.491Z,12.80
2018-07-27T04:37:52.294Z,12.80
2018-07-27T04:40:20.883Z,12.70
2018-07-27T04:42:49.365Z,12.80
2018-07-27T04:45:17.926Z,12.90
2018-07-27T04:47:46.414Z,13.00
2018-07-27T04:50:14.874Z,13.10
2018-07-27T04:52:43.299Z,13.00
2018-07-27T04:55:11.954Z,13.00
2018-07-27T04:57:40.391Z,13.00
2018-07-27T05:00:08.896Z,13.10
2018-07-27T05:02:37.407Z,13.10
2018-07-27T05:05:05.890Z,13.30
2018-07-27T05:07:34.352Z,13.50
2018-07-27T05:10:07.220Z,13.60
2018-07-27T05:12:35.639Z,13.70
2018-07-27T05:15:04.335Z,13.80
2018-07-27T05:17:32.739Z,13.90
2018-07-27T05:20:01.350Z,14.00
2018-07-27T05:22:30.186Z,14.10
2018-07-27T05:24:58.626Z,14.20
2018-07-27T05:27:27.142Z,14.30
2018-07-27T05:29:55.837Z,14.50
2018-07-27T05:32:24.714Z,14.60
2018-07-27T05:34:53.417Z,14.70
2018-07-27T05:37:22.298Z,14.90
2018-07-27T05:39:50.987Z,15.00
2018-07-27T05:42:19.425Z,15.20
2018-07-27T05:44:47.947Z,15.40
2018-07-27T05:47:16.847Z,15.50
2018-07-27T05:52:13.982Z,15.80
2018-07-27T05:54:42.708Z,16.00
2018-07-27T05:59:39.421Z,16.30
2018-07-27T06:02:10.438Z,16.50
2018-07-27T06:04:38.635Z,16.70
2018-07-27T06:07:07.438Z,16.80
2018-07-27T06:09:36.007Z,17.00
2018-07-27T06:12:04.632Z,17.20
2018-07-27T06:14:33.279Z,17.30
2018-07-27T06:17:01.984Z,17.30
2018-07-27T06:19:31.477Z,17.40
2018-07-27T06:22:01.182Z,17.50
2018-07-27T06:24:40.062Z,17.60
2018-07-27T06:27:08.561Z,17.70
2018-07-27T06:29:36.987Z,17.80
2018-07-27T06:32:05.410Z,18.00
2018-07-27T06:34:34.005Z,18.20
2018-07-27T06:37:02.612Z,18.30
2018-07-27T06:39:31.514Z,18.50
2018-07-27T06:41:59.960Z,18.70
2018-07-27T06:44:28.734Z,18.80
2018-07-27T06:46:57.222Z,18.90
2018-07-27T06:49:25.839Z,19.10
2018-07-27T06:51:54.450Z,19.30
2018-07-27T06:54:22.979Z,19.40
2018-07-27T06:56:51.451Z,19.60
2018-07-27T06:59:20.000Z,19.70
2018-07-27T07:01:48.415Z,19.90
2018-07-27T07:04:16.882Z,20.00
2018-07-27T07:06:45.579Z,20.20
2018-07-27T07:09:14.120Z,20.30
2018-07-27T07:11:42.567Z,20.50
2018-07-27T07:14:11.043Z,20.70
2018-07-27T07:16:39.595Z,20.80
2018-07-27T07:19:09.215Z,21.00
2018-07-27T07:21:37.963Z,21.20
2018-07-27T07:24:07.382Z,21.30
2018-07-27T07:26:36.611Z,21.50
2018-07-27T07:29:05.325Z,21.80
2018-07-27T07:31:33.853Z,22.00
2018-07-27T07:34:02.449Z,22.10
2018-07-27T07:36:30.938Z,22.40
2018-07-27T07:41:27.587Z,22.80
2018-07-27T07:43:56.123Z,23.00
2018-07-27T07:46:24.641Z,23.20
2018-07-27T07:48:53.477Z,23.30
2018-07-27T07:51:21.984Z,23.50
2018-07-27T07:53:50.595Z,23.70
2018-07-27T07:56:19.175Z,23.90
2018-07-27T07:58:47.646Z,24.10
2018-07-27T08:01:16.092Z,24.20
2018-07-27T08:03:44.526Z,24.50
2018-07-27T08:06:12.955Z,24.60
2018-07-27T08:08:41.531Z,24.80
2018-07-27T08:11:10.091Z,25.00
2018-07-27T08:13:39.147Z,25.00
2018-07-27T08:16:07.848Z,25.10
2018-07-27T08:18:36.502Z,25.20
2018-07-27T08:21:05.156Z,25.40
2018-07-27T08:23:33.891Z,25.50
2018-07-27T08:26:37.791Z,25.70
2018-07-27T08:29:06.980Z,25.80
2018-07-27T08:31:35.454Z,25.90
2018-07-27T08:34:04.127Z,26.00
2018-07-27T08:36:37.034Z,26.20
2018-07-27T08:39:09.104Z,26.30
2018-07-27T08:41:38.472Z,26.40
2018-07-27T08:44:07.771Z,26.60
2018-07-27T08:46:38.079Z,26.70
2018-07-27T08:49:06.598Z,26.90
2018-07-27T08:51:35.073Z,26.90
2018-07-27T08:54:03.679Z,27.10
2018-07-27T08:56:32.236Z,27.30
2018-07-27T08:59:01.577Z,27.40
2018-07-27T09:01:30.100Z,27.60
2018-07-27T09:03:58.665Z,27.70
2018-07-27T09:06:27.150Z,27.70
2018-07-27T09:08:55.881Z,27.90
2018-07-27T09:11:24.760Z,28.00
2018-07-27T09:13:53.813Z,28.00
2018-07-27T09:16:22.834Z,28.10
2018-07-27T09:18:51.927Z,28.30
2018-07-27T09:21:20.725Z,28.40
2018-07-27T09:23:49.315Z,28.60
2018-07-27T09:26:17.779Z,28.70
2018-07-27T09:28:46.270Z,28.70
2018-07-27T09:31:14.893Z,28.70
2018-07-27T09:33:43.587Z,28.80
2018-07-27T09:36:12.102Z,28.90
2018-07-27T09:38:40.625Z,29.00
2018-07-27T09:41:09.146Z,28.90
2018-07-27T09:43:37.747Z,29.00
2018-07-27T09:46:07.087Z,29.00
2018-07-27T09:48:35.551Z,29.00
2018-07-27T09:51:04.088Z,29.20
2018-07-27T09:53:32.898Z,29.20
2018-07-27T09:56:01.403Z,29.30
2018-07-27T09:58:29.939Z,29.30
2018-07-27T10:01:03.932Z,29.40
2018-07-27T10:03:32.624Z,29.40
2018-07-27T10:06:01.093Z,29.40
2018-07-27T10:08:29.594Z,29.40
2018-07-27T10:10:58.038Z,29.50
2018-07-27T10:13:26.559Z,29.40
2018-07-27T10:15:55.011Z,29.50
2018-07-27T10:18:23.469Z,29.70
2018-07-27T10:20:51.998Z,29.80
2018-07-27T10:23:20.567Z,29.70
2018-07-27T10:25:49.061Z,29.90
2018-07-27T10:28:17.954Z,29.90
2018-07-27T10:30:46.451Z,30.00
2018-07-27T10:33:15.029Z,30.20
2018-07-27T10:35:43.657Z,30.40
2018-07-27T10:38:12.095Z,30.40
2018-07-27T10:40:40.657Z,30.40
2018-07-27T10:43:10.836Z,30.50
2018-07-27T10:45:39.560Z,30.70
2018-07-27T10:48:08.049Z,30.80
2018-07-27T10:50:36.632Z,31.00
2018-07-27T10:53:05.479Z,31.10
2018-07-27T10:55:33.996Z,31.30
2018-07-27T10:58:02.556Z,31.30
2018-07-27T11:00:31.033Z,31.40
2018-07-27T11:02:59.506Z,31.50
2018-07-27T11:05:28.003Z,31.50
2018-07-27T11:07:56.580Z,31.70
2018-07-27T11:10:28.115Z,31.70
2018-07-27T11:12:56.650Z,31.70
2018-07-27T11:15:25.088Z,31.60
2018-07-27T11:17:53.658Z,31.50
2018-07-27T11:20:22.018Z,31.90
2018-07-27T11:22:50.775Z,32.40
2018-07-27T11:25:19.457Z,32.80
2018-07-27T11:27:47.943Z,33.00
2018-07-27T11:30:16.522Z,33.20
2018-07-27T11:32:45.046Z,33.00
2018-07-27T11:35:13.503Z,32.80
2018-07-27T11:37:42.028Z,33.10
2018-07-27T11:40:11.582Z,33.50
2018-07-27T11:42:40.204Z,33.80
2018-07-27T11:45:08.716Z,33.90
2018-07-27T11:47:37.462Z,33.30
2018-07-27T11:50:06.069Z,33.50
2018-07-27T11:52:34.747Z,33.50
2018-07-27T11:55:03.342Z,33.50
2018-07-27T11:57:31.875Z,33.10
2018-07-27T12:00:00.376Z,33.30
2018-07-27T12:02:29.007Z,33.60
2018-07-27T12:04:57.581Z,34.00
2018-07-27T12:07:25.995Z,34.10
2018-07-27T12:09:54.643Z,34.20
2018-07-27T12:12:23.122Z,34.30
2018-07-27T12:14:51.772Z,34.80
2018-07-27T12:17:20.182Z,34.90
2018-07-27T12:19:48.675Z,34.80
2018-07-27T12:22:17.111Z,34.60
2018-07-27T12:24:45.626Z,33.80
2018-07-27T12:27:14.102Z,33.40
2018-07-27T12:29:42.651Z,32.60
2018-07-27T12:32:12.859Z,32.90
2018-07-27T12:34:42.635Z,33.40
2018-07-27T12:37:11.091Z,33.30
2018-07-27T12:39:39.748Z,33.00
2018-07-27T12:42:08.230Z,32.60
2018-07-27T12:44:36.695Z,31.90
2018-07-27T12:47:05.482Z,31.60
2018-07-27T12:49:34.035Z,31.60
2018-07-27T12:52:02.614Z,31.30
2018-07-27T12:54:31.058Z,31.40
2018-07-27T12:56:59.714Z,31.90
2018-07-27T12:59:28.279Z,32.00
2018-07-27T13:01:56.791Z,31.80
2018-07-27T13:04:25.212Z,31.70
2018-07-27T13:06:53.838Z,31.50
2018-07-27T13:09:22.306Z,31.30
2018-07-27T13:11:50.746Z,31.00
2018-07-27T13:14:19.179Z,30.90
2018-07-27T13:16:47.662Z,30.80
2018-07-27T13:19:16.365Z,31.00
2018-07-27T13:21:45.077Z,30.90
2018-07-27T13:24:13.716Z,31.10
2018-07-27T13:26:42.238Z,30.90
2018-07-27T13:29:10.662Z,30.80
2018-07-27T13:34:50.557Z,30.80
2018-07-27T13:37:20.076Z,30.70
2018-07-27T13:39:49.786Z,30.70
2018-07-27T13:42:25.130Z,30.80
2018-07-27T13:44:53.812Z,31.00
2018-07-27T13:47:22.603Z,31.50
2018-07-27T13:49:51.160Z,31.90
2018-07-27T13:52:19.741Z,32.10
2018-07-27T13:54:48.373Z,32.20
2018-07-27T13:57:16.839Z,32.10
2018-07-27T13:59:45.777Z,32.10
2018-07-27T14:02:14.703Z,31.90
2018-07-27T14:04:44.552Z,32.00
2018-07-27T14:07:13.292Z,32.30
2018-07-27T14:09:41.970Z,32.60
2018-07-27T14:12:10.436Z,33.10
2018-07-27T14:14:38.971Z,33.40
2018-07-27T14:17:07.624Z,33.30
2018-07-27T14:19:38.207Z,33.10
2018-07-27T14:22:07.218Z,32.80
2018-07-27T14:24:35.795Z,32.60
2018-07-27T14:27:04.384Z,32.30
2018-07-27T14:29:32.883Z,32.10
2018-07-27T14:32:01.328Z,31.70
2018-07-27T14:34:29.774Z,31.40
2018-07-27T14:36:58.323Z,31.30
2018-07-27T14:39:26.844Z,31.20
2018-07-27T14:44:24.985Z,31.00
2018-07-27T14:46:53.515Z,30.80
2018-07-27T14:49:22.206Z,30.80
2018-07-27T14:51:50.725Z,30.80
2018-07-27T14:54:19.188Z,30.90
2018-07-27T14:56:47.910Z,30.90
2018-07-27T14:59:16.416Z,30.80
2018-07-27T15:01:44.896Z,30.80
2018-07-27T15:04:13.424Z,30.60
2018-07-27T15:06:41.895Z,30.70
2018-07-27T15:09:12.647Z,30.60
2018-07-27T15:11:41.670Z,30.40
2018-07-27T15:14:10.518Z,30.50
2018-07-27T15:16:39.319Z,30.50
2018-07-27T15:19:09.615Z,30.70
2018-07-27T15:21:38.107Z,30.80
2018-07-27T15:24:06.659Z,31.20
2018-07-27T15:26:35.174Z,32.80
2018-07-27T15:29:03.974Z,34.60
2018-07-27T15:31:32.423Z,36.50
2018-07-27T15:34:01.082Z,37.50
2018-07-27T15:36:29.559Z,38.10
2018-07-27T15:38:58.044Z,37.70
2018-07-27T15:41:26.621Z,37.90
2018-07-27T15:43:55.051Z,38.00
2018-07-27T15:46:24.050Z,38.30
2018-07-27T15:48:52.668Z,37.40
2018-07-27T15:51:21.732Z,36.10
2018-07-27T15:53:50.601Z,35.00
2018-07-27T15:56:19.288Z,34.20
2018-07-27T15:58:47.847Z,33.70
2018-07-27T16:01:16.719Z,33.30
2018-07-27T16:03:45.628Z,33.10
2018-07-27T16:06:14.483Z,33.20
2018-07-27T16:08:43.739Z,34.60
2018-07-27T16:11:12.502Z,36.20
2018-07-27T16:13:41.857Z,37.80
2018-07-27T16:16:10.495Z,38.90
2018-07-27T16:18:38.954Z,39.40
2018-07-27T16:21:07.711Z,39.90
2018-07-27T16:23:36.875Z,40.20
2018-07-27T16:26:06.360Z,40.40
2018-07-27T16:28:35.418Z,40.00
2018-07-27T16:31:04.167Z,39.20
2018-07-27T16:33:32.772Z,37.90
2018-07-27T16:36:01.322Z,36.40
2018-07-27T16:38:30.192Z,35.00
2018-07-27T16:41:00.340Z,34.10
2018-07-27T16:45:56.890Z,33.10
2018-07-27T16:48:25.299Z,33.00
2018-07-27T16:50:53.942Z,32.80
2018-07-27T16:53:22.393Z,32.40
2018-07-27T16:55:50.812Z,32.00
2018-07-27T16:58:19.463Z,32.00
2018-07-27T17:00:48.763Z,31.90
2018-07-27T17:03:17.411Z,31.80
2018-07-27T17:05:45.875Z,32.00
2018-07-27T17:08:14.594Z,32.40
2018-07-27T17:10:43.137Z,32.70
2018-07-27T17:13:11.796Z,32.70
2018-07-27T17:15:40.259Z,32.70
2018-07-27T17:18:08.740Z,32.20
2018-07-27T17:20:37.291Z,31.90
2018-07-27T17:23:05.764Z,31.80
2018-07-27T17:25:34.319Z,31.70
2018-07-27T17:28:02.791Z,31.90
2018-07-27T17:30:31.295Z,32.40
2018-07-27T17:32:59.749Z,33.00
2018-07-27T17:35:28.296Z,33.70
2018-07-27T17:37:56.859Z,34.10
2018-07-27T17:40:25.313Z,34.50
2018-07-27T17:42:53.859Z,34.50
2018-07-27T17:45:23.558Z,34.60
2018-07-27T17:47:52.014Z,34.40
2018-07-27T17:50:20.560Z,33.70
2018-07-27T17:52:48.970Z,32.70
2018-07-27T17:55:17.503Z,32.00
2018-07-27T17:57:45.965Z,31.30
2018-07-27T18:00:14.461Z,30.60
2018-07-27T18:05:11.347Z,30.10
2018-07-27T18:07:39.920Z,29.70
2018-07-27T18:10:08.384Z,29.20
2018-07-27T18:12:36.846Z,28.80
2018-07-27T18:15:05.716Z,28.40
2018-07-27T18:17:34.280Z,28.00
2018-07-27T18:20:02.934Z,27.60
2018-07-27T18:22:31.552Z,27.40
2018-07-27T18:25:00.034Z,27.10
2018-07-27T18:27:28.531Z,26.90
2018-07-27T18:29:57.209Z,26.60
2018-07-27T18:32:25.674Z,26.40
2018-07-27T18:34:55.104Z,26.20
2018-07-27T18:37:24.591Z,26.00
2018-07-27T18:39:53.499Z,25.80
2018-07-27T18:42:22.057Z,25.60
2018-07-27T18:44:50.544Z,25.30
2018-07-27T18:47:19.910Z,25.20
2018-07-27T18:49:49.395Z,25.00
2018-07-27T18:52:17.925Z,24.80
2018-07-27T18:54:46.356Z,24.50
2018-07-27T18:57:15.119Z,24.40
2018-07-27T18:59:43.806Z,24.30
2018-07-27T19:02:12.400Z,24.00
2018-07-27T19:04:40.914Z,23.90
2018-07-27T19:07:09.438Z,23.70
2018-07-27T19:09:37.930Z,23.50
2018-07-27T19:12:06.510Z,23.20
2018-07-27T19:14:35.102Z,23.10
2018-07-27T19:17:03.659Z,22.90
2018-07-27T19:19:32.327Z,22.80
2018-07-27T19:22:00.915Z,22.60
2018-07-27T19:24:29.499Z,22.50
2018-07-27T19:26:58.021Z,22.30
2018-07-27T19:29:26.466Z,22.30
2018-07-27T19:31:54.936Z,22.10
2018-07-27T19:34:23.497Z,22.00
2018-07-27T19:36:52.074Z,21.90
2018-07-27T19:39:20.658Z,21.70
2018-07-27T19:41:49.163Z,21.60
2018-07-27T19:44:17.665Z,21.50
2018-07-27T19:46:46.117Z,21.40
2018-07-27T19:49:16.213Z,21.30
2018-07-27T19:51:44.736Z,21.30
2018-07-27T19:54:13.301Z,21.10
2018-07-27T19:56:41.983Z,21.00
2018-07-27T19:59:10.514Z,21.00
2018-07-27T20:01:39.123Z,20.90
2018-07-27T20:04:07.714Z,20.80
2018-07-27T20:06:36.182Z,20.90
2018-07-27T20:09:07.724Z,20.90
2018-07-27T20:11:36.267Z,20.90
2018-07-27T20:14:04.854Z,20.90
2018-07-27T20:16:33.322Z,20.80
2018-07-27T20:19:01.788Z,20.80
2018-07-27T20:21:30.422Z,20.70
2018-07-27T20:23:59.016Z,20.90
2018-07-27T20:26:27.574Z,20.80
2018-07-27T20:28:56.094Z,20.90
2018-07-27T20:31:24.692Z,20.90
2018-07-27T20:33:53.716Z,20.80
2018-07-27T20:36:22.164Z,20.80
2018-07-27T20:38:50.782Z,20.90
2018-07-27T20:41:19.326Z,20.90
2018-07-27T20:43:47.941Z,20.90
2018-07-27T20:46:16.453Z,20.90
2018-07-27T20:48:45.288Z,20.80
2018-07-27T20:51:13.762Z,20.80
2018-07-27T20:53:42.267Z,20.80
2018-07-27T20:56:10.706Z,20.80
2018-07-27T20:58:39.620Z,20.70
2018-07-27T21:01:08.196Z,20.70
2018-07-27T21:03:36.876Z,20.80
2018-07-27T21:06:05.767Z,20.70
2018-07-27T21:08:34.243Z,20.80
2018-07-27T21:11:02.735Z,20.70
2018-07-27T21:13:31.220Z,20.70
2018-07-27T21:15:59.780Z,20.60
2018-07-27T21:18:28.289Z,20.60
2018-07-27T21:20:56.979Z,20.60
2018-07-27T21:23:25.659Z,20.60
2018-07-27T21:25:54.116Z,20.50
2018-07-27T21:28:22.783Z,20.50
2018-07-27T21:30:51.395Z,20.40
2018-07-27T21:33:20.029Z,20.40
2018-07-27T21:35:48.566Z,20.30
2018-07-27T21:38:17.121Z,20.20
2018-07-27T21:40:45.555Z,20.20
2018-07-27T21:43:14.077Z,20.10
2018-07-27T21:45:43.114Z,20.00
2018-07-27T21:48:11.648Z,20.00
2018-07-27T21:50:40.179Z,19.80
2018-07-27T21:53:09.390Z,19.80
2018-07-27T21:55:37.838Z,19.70
2018-07-27T21:58:08.710Z,19.70
2018-07-27T22:00:37.179Z,19.60
2018-07-27T22:03:06.131Z,19.40
2018-07-27T22:05:35.116Z,19.30
2018-07-27T22:08:03.782Z,19.10
2018-07-27T22:10:32.220Z,19.00
2018-07-27T22:13:00.773Z,18.90
2018-07-27T22:15:29.491Z,18.80
2018-07-27T22:17:58.124Z,18.80
2018-07-27T22:20:26.597Z,18.80
2018-07-27T22:22:55.089Z,18.70
2018-07-27T22:25:23.648Z,18.60
2018-07-27T22:27:52.122Z,18.50
2018-07-27T22:30:20.611Z,18.40
2018-07-27T22:32:49.051Z,18.30
2018-07-27T22:35:17.696Z,18.30
2018-07-27T22:37:46.192Z,18.20
2018-07-27T22:40:14.736Z,18.20
2018-07-27T22:42:43.218Z,18.10
2018-07-27T22:45:12.655Z,18.10
2018-07-27T22:47:42.910Z,18.00
2018-07-27T22:50:11.571Z,17.90
2018-07-27T22:52:40.831Z,17.80
2018-07-27T22:55:11.423Z,17.70
2018-07-27T22:57:40.974Z,17.70
2018-07-27T23:00:12.196Z,17.60
2018-07-27T23:02:40.999Z,17.50
2018-07-27T23:05:09.776Z,17.60
2018-07-27T23:07:38.567Z,17.50
2018-07-27T23:10:08.258Z,17.40
2018-07-27T23:12:36.811Z,17.40
2018-07-27T23:15:06.883Z,17.40
2018-07-27T23:17:35.466Z,17.40
2018-07-27T23:20:06.042Z,17.40
2018-07-27T23:22:34.534Z,17.30
2018-07-27T23:25:03.206Z,17.30
2018-07-27T23:27:31.735Z,17.20
2018-07-27T23:30:00.216Z,17.20
2018-07-27T23:32:28.911Z,17.20
2018-07-27T23:34:57.399Z,17.20
2018-07-27T23:37:25.970Z,17.20
2018-07-27T23:39:54.567Z,17.10
2018-07-27T23:42:23.055Z,17.00
2018-07-27T23:44:51.626Z,17.00
2018-07-27T23:47:20.211Z,17.00
2018-07-27T23:49:48.757Z,17.00
2018-07-27T23:52:17.374Z,17.00
2018-07-27T23:54:46.109Z,16.90
2018-07-27T23:57:14.543Z,16.90
